This is the latest recevied weather packets stored in our database for station/object KC1DMA. If no packets are shown the sender has not sent any weather packets the latest 1 day(s).
| Time | Temp. | Humidity | Pressure | Rain* | Wind** | Luminosity | Snow |
|---|---|---|---|---|---|---|---|
| 1778077923 | 18.33° C | 74% | 1011.8 hPa | - | - | 425 W/m² | - |
| 1778077621 | 18.33° C | 73% | 1011.7 hPa | - | - | 476 W/m² | - |
| 1778074894 | 17.78° C | 76% | 1011.8 hPa | - | - | 356 W/m² | - |
| 1778073076 | 16.67° C | 80% | 1011.7 hPa | - | - | 249 W/m² | - |
| 1778072471 | 16.67° C | 80% | 1011.8 hPa | - | - | 277 W/m² | - |
| 1778072169 | 16.67° C | 80% | 1011.9 hPa | - | - | 224 W/m² | - |
| 1778070959 | 16.67° C | 81% | 1012.5 hPa | - | - | 338 W/m² | - |
| 1778069445 | 16.11° C | 83% | 1012.3 hPa | - | - | 373 W/m² | - |
| 1778067632 | 14.44° C | 88% | 1012.2 hPa | - | - | 147 W/m² | - |
| 1778066723 | 13.89° C | 91% | 1012.3 hPa | - | - | 93 W/m² | - |
| 1778065513 | 13.89° C | 91% | 1012.4 hPa | - | - | 100 W/m² | - |
| 1778065210 | 13.89° C | 91% | 1012.3 hPa | - | - | 64 W/m² | - |
| 1778064906 | 13.89° C | 91% | 1012.4 hPa | - | - | 70 W/m² | - |
| 1778063999 | 13.33° C | 92% | 1012.5 hPa | - | - | 52 W/m² | - |
| 1778063091 | 13.33° C | 92% | 1012.3 hPa | - | - | 45 W/m² | - |
| 1778062788 | 12.78° C | 92% | 1012.4 hPa | - | - | 31 W/m² | - |
| 1778061880 | 12.78° C | 92% | 1012.3 hPa | - | - | 11 W/m² | - |
| 1778061577 | 12.78° C | 92% | 1012.2 hPa | - | - | 8 W/m² | - |
| 1778061276 | 12.78° C | 92% | 1012.3 hPa | - | - | 6 W/m² | - |
| 1778059763 | 13.33° C | 91% | 1012.3 hPa | - | - | 0 W/m² | - |
| 1778059461 | 13.33° C | 91% | 1012.4 hPa | - | - | 0 W/m² | - |
| 1778059157 | 13.33° C | 91% | 1012.1 hPa | - | - | 0 W/m² | - |
| 1778058250 | 13.33° C | 90% | 1012.3 hPa | - | - | 0 W/m² | - |
| 1778057036 | 13.33° C | 90% | 1012.4 hPa | - | - | 0 W/m² | - |
| 1778056430 | 13.33° C | 89% | 1012.4 hPa | - | - | 0 W/m² | - |
* Rain since midnight (hover to see other rain measurements)
** Current wind speed in m/s (hover to see current wind gust speed)